<?xml version="1.0" encoding="UTF-8" standalone="no" ?>
<gpx xmlns="http://www.topografix.com/GPX/1/1" xmlns:xsi="http://www.w3.org/2001/XMLSchema-instance" xsi:schemaLocation="http://www.topografix.com/GPX/1/1 http://www.topografix.com/GPX/1/1/gpx.xsd" version="1.1" creator="VisuGPX - https://www.visugpx.com">
  <metadata>
    <name>2024-09-19-46-st martin le redon</name>
    <desc><![CDATA[Randonnée de 11 km pour 150m de dénivelé positif en une seule côte, nous empruntons des morceaux des GR 652 et 36 avec un passage devant la source St Martial beaux paysages et un petit détour pour apercevoir le château de Bonaguil.]]></desc>
  </metadata>
  <trk>
    <name><![CDATA[Rando Saint Martin Le Redon du 19-09-2024-19919753]]></name>
    <trkseg>
      <trkpt lat="44.53059" lon="1.04314">
        <ele>104</ele>
        <time>2024-09-17T13:26:36Z</time>
      </trkpt>
      <trkpt lat="44.53057" lon="1.04302">
        <ele>104</ele>
        <time>2024-09-17T13:26:48Z</time>
      </trkpt>
      <trkpt lat="44.53052" lon="1.04289">
        <ele>104</ele>
        <time>2024-09-17T13:27:02Z</time>
      </trkpt>
      <trkpt lat="44.53034" lon="1.0426">
        <ele>103</ele>
        <time>2024-09-17T13:27:38Z</time>
      </trkpt>
      <trkpt lat="44.5305" lon="1.04243">
        <ele>103</ele>
        <time>2024-09-17T13:28:05Z</time>
      </trkpt>
      <trkpt lat="44.53077" lon="1.04226">
        <ele>104</ele>
        <time>2024-09-17T13:28:45Z</time>
      </trkpt>
      <trkpt lat="44.53085" lon="1.04219">
        <ele>104</ele>
        <time>2024-09-17T13:28:57Z</time>
      </trkpt>
      <trkpt lat="44.53098" lon="1.04199">
        <ele>105</ele>
        <time>2024-09-17T13:29:23Z</time>
      </trkpt>
      <trkpt lat="44.53113" lon="1.04183">
        <ele>107</ele>
        <time>2024-09-17T13:29:48Z</time>
      </trkpt>
      <trkpt lat="44.53121" lon="1.04191">
        <ele>107</ele>
        <time>2024-09-17T13:30:01Z</time>
      </trkpt>
      <trkpt lat="44.53127" lon="1.042">
        <ele>107</ele>
        <time>2024-09-17T13:30:13Z</time>
      </trkpt>
      <trkpt lat="44.53151" lon="1.04222">
        <ele>108</ele>
        <time>2024-09-17T13:30:51Z</time>
      </trkpt>
      <trkpt lat="44.53156" lon="1.04233">
        <ele>107</ele>
        <time>2024-09-17T13:31:04Z</time>
      </trkpt>
      <trkpt lat="44.53172" lon="1.04251">
        <ele>109</ele>
        <time>2024-09-17T13:31:31Z</time>
      </trkpt>
      <trkpt lat="44.53178" lon="1.04262">
        <ele>110</ele>
        <time>2024-09-17T13:31:44Z</time>
      </trkpt>
      <trkpt lat="44.53194" lon="1.04277">
        <ele>112</ele>
        <time>2024-09-17T13:32:10Z</time>
      </trkpt>
      <trkpt lat="44.53247" lon="1.04358">
        <ele>109</ele>
        <time>2024-09-17T13:33:54Z</time>
      </trkpt>
      <trkpt lat="44.53265" lon="1.04371">
        <ele>111</ele>
        <time>2024-09-17T13:34:21Z</time>
      </trkpt>
      <trkpt lat="44.53279" lon="1.04389">
        <ele>111</ele>
        <time>2024-09-17T13:34:47Z</time>
      </trkpt>
      <trkpt lat="44.5329" lon="1.04408">
        <ele>109</ele>
        <time>2024-09-17T13:35:10Z</time>
      </trkpt>
      <trkpt lat="44.53304" lon="1.04426">
        <ele>109</ele>
        <time>2024-09-17T13:35:35Z</time>
      </trkpt>
      <trkpt lat="44.53317" lon="1.04446">
        <ele>109</ele>
        <time>2024-09-17T13:36:01Z</time>
      </trkpt>
      <trkpt lat="44.53352" lon="1.04493">
        <ele>112</ele>
        <time>2024-09-17T13:37:06Z</time>
      </trkpt>
      <trkpt lat="44.53365" lon="1.04515">
        <ele>113</ele>
        <time>2024-09-17T13:37:33Z</time>
      </trkpt>
      <trkpt lat="44.5341" lon="1.04566">
        <ele>116</ele>
        <time>2024-09-17T13:38:50Z</time>
      </trkpt>
      <trkpt lat="44.53416" lon="1.04577">
        <ele>115</ele>
        <time>2024-09-17T13:39:03Z</time>
      </trkpt>
      <trkpt lat="44.53434" lon="1.04588">
        <ele>119</ele>
        <time>2024-09-17T13:39:30Z</time>
      </trkpt>
      <trkpt lat="44.5345" lon="1.04603">
        <ele>122</ele>
        <time>2024-09-17T13:39:55Z</time>
      </trkpt>
      <trkpt lat="44.53461" lon="1.04626">
        <ele>122</ele>
        <time>2024-09-17T13:40:22Z</time>
      </trkpt>
      <trkpt lat="44.53473" lon="1.04645">
        <ele>122</ele>
        <time>2024-09-17T13:40:46Z</time>
      </trkpt>
      <trkpt lat="44.53482" lon="1.04668">
        <ele>119</ele>
        <time>2024-09-17T13:41:11Z</time>
      </trkpt>
      <trkpt lat="44.53489" lon="1.04677">
        <ele>120</ele>
        <time>2024-09-17T13:41:23Z</time>
      </trkpt>
      <trkpt lat="44.53494" lon="1.04688">
        <ele>119</ele>
        <time>2024-09-17T13:41:36Z</time>
      </trkpt>
      <trkpt lat="44.53501" lon="1.04696">
        <ele>119</ele>
        <time>2024-09-17T13:41:48Z</time>
      </trkpt>
      <trkpt lat="44.5352" lon="1.04699">
        <ele>119</ele>
        <time>2024-09-17T13:42:13Z</time>
      </trkpt>
      <trkpt lat="44.53528" lon="1.04695">
        <ele>120</ele>
        <time>2024-09-17T13:42:25Z</time>
      </trkpt>
      <trkpt lat="44.53548" lon="1.04689">
        <ele>121</ele>
        <time>2024-09-17T13:42:52Z</time>
      </trkpt>
      <trkpt lat="44.53557" lon="1.04685">
        <ele>122</ele>
        <time>2024-09-17T13:43:05Z</time>
      </trkpt>
      <trkpt lat="44.53579" lon="1.04656">
        <ele>126</ele>
        <time>2024-09-17T13:43:45Z</time>
      </trkpt>
      <trkpt lat="44.53607" lon="1.04641">
        <ele>128</ele>
        <time>2024-09-17T13:44:25Z</time>
      </trkpt>
      <trkpt lat="44.53615" lon="1.04633">
        <ele>129</ele>
        <time>2024-09-17T13:44:38Z</time>
      </trkpt>
      <trkpt lat="44.53621" lon="1.04621">
        <ele>129</ele>
        <time>2024-09-17T13:44:52Z</time>
      </trkpt>
      <trkpt lat="44.53646" lon="1.046">
        <ele>129</ele>
        <time>2024-09-17T13:45:31Z</time>
      </trkpt>
      <trkpt lat="44.53652" lon="1.0459">
        <ele>129</ele>
        <time>2024-09-17T13:45:43Z</time>
      </trkpt>
      <trkpt lat="44.53661" lon="1.04584">
        <ele>128</ele>
        <time>2024-09-17T13:45:57Z</time>
      </trkpt>
      <trkpt lat="44.53668" lon="1.04575">
        <ele>128</ele>
        <time>2024-09-17T13:46:09Z</time>
      </trkpt>
      <trkpt lat="44.53671" lon="1.04562">
        <ele>130</ele>
        <time>2024-09-17T13:46:22Z</time>
      </trkpt>
      <trkpt lat="44.53676" lon="1.0455">
        <ele>132</ele>
        <time>2024-09-17T13:46:35Z</time>
      </trkpt>
      <trkpt lat="44.53682" lon="1.0448">
        <ele>137</ele>
        <time>2024-09-17T13:47:42Z</time>
      </trkpt>
      <trkpt lat="44.53684" lon="1.04468">
        <ele>138</ele>
        <time>2024-09-17T13:47:54Z</time>
      </trkpt>
      <trkpt lat="44.53684" lon="1.04454">
        <ele>139</ele>
        <time>2024-09-17T13:48:08Z</time>
      </trkpt>
      <trkpt lat="44.53689" lon="1.04428">
        <ele>141</ele>
        <time>2024-09-17T13:48:33Z</time>
      </trkpt>
      <trkpt lat="44.53694" lon="1.04414">
        <ele>142</ele>
        <time>2024-09-17T13:48:48Z</time>
      </trkpt>
      <trkpt lat="44.53697" lon="1.04386">
        <ele>143</ele>
        <time>2024-09-17T13:49:15Z</time>
      </trkpt>
      <trkpt lat="44.53703" lon="1.04375">
        <ele>143</ele>
        <time>2024-09-17T13:49:28Z</time>
      </trkpt>
      <trkpt lat="44.53705" lon="1.0435">
        <ele>143</ele>
        <time>2024-09-17T13:49:52Z</time>
      </trkpt>
      <trkpt lat="44.5371" lon="1.04336">
        <ele>144</ele>
        <time>2024-09-17T13:50:07Z</time>
      </trkpt>
      <trkpt lat="44.53704" lon="1.04311">
        <ele>143</ele>
        <time>2024-09-17T13:50:32Z</time>
      </trkpt>
      <trkpt lat="44.5371" lon="1.04286">
        <ele>144</ele>
        <time>2024-09-17T13:50:57Z</time>
      </trkpt>
      <trkpt lat="44.53719" lon="1.04262">
        <ele>143</ele>
        <time>2024-09-17T13:51:23Z</time>
      </trkpt>
      <trkpt lat="44.53725" lon="1.04252">
        <ele>143</ele>
        <time>2024-09-17T13:51:35Z</time>
      </trkpt>
      <trkpt lat="44.5374" lon="1.04233">
        <ele>144</ele>
        <time>2024-09-17T13:52:02Z</time>
      </trkpt>
      <trkpt lat="44.53755" lon="1.04217">
        <ele>145</ele>
        <time>2024-09-17T13:52:27Z</time>
      </trkpt>
      <trkpt lat="44.53775" lon="1.04189">
        <ele>149</ele>
        <time>2024-09-17T13:53:05Z</time>
      </trkpt>
      <trkpt lat="44.53796" lon="1.04165">
        <ele>151</ele>
        <time>2024-09-17T13:53:41Z</time>
      </trkpt>
      <trkpt lat="44.5382" lon="1.04144">
        <ele>155</ele>
        <time>2024-09-17T13:54:19Z</time>
      </trkpt>
      <trkpt lat="44.53828" lon="1.0414">
        <ele>157</ele>
        <time>2024-09-17T13:54:30Z</time>
      </trkpt>
      <trkpt lat="44.53843" lon="1.04124">
        <ele>159</ele>
        <time>2024-09-17T13:54:56Z</time>
      </trkpt>
      <trkpt lat="44.53851" lon="1.04118">
        <ele>159</ele>
        <time>2024-09-17T13:55:08Z</time>
      </trkpt>
      <trkpt lat="44.53861" lon="1.04116">
        <ele>160</ele>
        <time>2024-09-17T13:55:21Z</time>
      </trkpt>
      <trkpt lat="44.53871" lon="1.04119">
        <ele>160</ele>
        <time>2024-09-17T13:55:35Z</time>
      </trkpt>
      <trkpt lat="44.5388" lon="1.04125">
        <ele>159</ele>
        <time>2024-09-17T13:55:48Z</time>
      </trkpt>
      <trkpt lat="44.53918" lon="1.04118">
        <ele>160</ele>
        <time>2024-09-17T13:56:39Z</time>
      </trkpt>
      <trkpt lat="44.53927" lon="1.04121">
        <ele>160</ele>
        <time>2024-09-17T13:56:52Z</time>
      </trkpt>
      <trkpt lat="44.53937" lon="1.04117">
        <ele>160</ele>
        <time>2024-09-17T13:57:05Z</time>
      </trkpt>
      <trkpt lat="44.53946" lon="1.04112">
        <ele>160</ele>
        <time>2024-09-17T13:57:18Z</time>
      </trkpt>
      <trkpt lat="44.53983" lon="1.04106">
        <ele>159</ele>
        <time>2024-09-17T13:58:08Z</time>
      </trkpt>
      <trkpt lat="44.5401" lon="1.04098">
        <ele>159</ele>
        <time>2024-09-17T13:58:45Z</time>
      </trkpt>
      <trkpt lat="44.54031" lon="1.04101">
        <ele>158</ele>
        <time>2024-09-17T13:59:13Z</time>
      </trkpt>
      <trkpt lat="44.5404" lon="1.04098">
        <ele>158</ele>
        <time>2024-09-17T13:59:25Z</time>
      </trkpt>
      <trkpt lat="44.5406" lon="1.04099">
        <ele>158</ele>
        <time>2024-09-17T13:59:52Z</time>
      </trkpt>
      <trkpt lat="44.54069" lon="1.04101">
        <ele>158</ele>
        <time>2024-09-17T14:00:04Z</time>
      </trkpt>
      <trkpt lat="44.54079" lon="1.041">
        <ele>158</ele>
        <time>2024-09-17T14:00:18Z</time>
      </trkpt>
      <trkpt lat="44.54089" lon="1.04104">
        <ele>158</ele>
        <time>2024-09-17T14:00:32Z</time>
      </trkpt>
      <trkpt lat="44.54118" lon="1.04108">
        <ele>158</ele>
        <time>2024-09-17T14:01:10Z</time>
      </trkpt>
      <trkpt lat="44.54146" lon="1.04111">
        <ele>158</ele>
        <time>2024-09-17T14:01:48Z</time>
      </trkpt>
      <trkpt lat="44.54155" lon="1.04114">
        <ele>158</ele>
        <time>2024-09-17T14:02:00Z</time>
      </trkpt>
      <trkpt lat="44.54175" lon="1.04116">
        <ele>160</ele>
        <time>2024-09-17T14:02:27Z</time>
      </trkpt>
      <trkpt lat="44.54223" lon="1.04137">
        <ele>166</ele>
        <time>2024-09-17T14:03:34Z</time>
      </trkpt>
      <trkpt lat="44.54232" lon="1.04137">
        <ele>167</ele>
        <time>2024-09-17T14:03:46Z</time>
      </trkpt>
      <trkpt lat="44.54243" lon="1.04139">
        <ele>168</ele>
        <time>2024-09-17T14:04:01Z</time>
      </trkpt>
      <trkpt lat="44.54257" lon="1.04146">
        <ele>168</ele>
        <time>2024-09-17T14:04:21Z</time>
      </trkpt>
      <trkpt lat="44.54276" lon="1.04152">
        <ele>169</ele>
        <time>2024-09-17T14:04:47Z</time>
      </trkpt>
      <trkpt lat="44.54293" lon="1.04164">
        <ele>168</ele>
        <time>2024-09-17T14:05:12Z</time>
      </trkpt>
      <trkpt lat="44.54314" lon="1.04173">
        <ele>170</ele>
        <time>2024-09-17T14:05:41Z</time>
      </trkpt>
      <trkpt lat="44.54332" lon="1.04184">
        <ele>171</ele>
        <time>2024-09-17T14:06:08Z</time>
      </trkpt>
      <trkpt lat="44.54341" lon="1.04188">
        <ele>172</ele>
        <time>2024-09-17T14:06:20Z</time>
      </trkpt>
      <trkpt lat="44.54351" lon="1.04189">
        <ele>172</ele>
        <time>2024-09-17T14:06:34Z</time>
      </trkpt>
      <trkpt lat="44.5436" lon="1.04194">
        <ele>173</ele>
        <time>2024-09-17T14:06:47Z</time>
      </trkpt>
      <trkpt lat="44.54367" lon="1.04202">
        <ele>173</ele>
        <time>2024-09-17T14:06:59Z</time>
      </trkpt>
      <trkpt lat="44.54384" lon="1.04215">
        <ele>173</ele>
        <time>2024-09-17T14:07:24Z</time>
      </trkpt>
      <trkpt lat="44.54403" lon="1.04223">
        <ele>173</ele>
        <time>2024-09-17T14:07:51Z</time>
      </trkpt>
      <trkpt lat="44.54412" lon="1.04223">
        <ele>173</ele>
        <time>2024-09-17T14:08:03Z</time>
      </trkpt>
      <trkpt lat="44.54432" lon="1.04221">
        <ele>173</ele>
        <time>2024-09-17T14:08:30Z</time>
      </trkpt>
      <trkpt lat="44.54459" lon="1.04211">
        <ele>172</ele>
        <time>2024-09-17T14:09:07Z</time>
      </trkpt>
      <trkpt lat="44.54476" lon="1.04197">
        <ele>172</ele>
        <time>2024-09-17T14:09:33Z</time>
      </trkpt>
      <trkpt lat="44.54485" lon="1.04192">
        <ele>172</ele>
        <time>2024-09-17T14:09:46Z</time>
      </trkpt>
      <trkpt lat="44.54508" lon="1.04167">
        <ele>172</ele>
        <time>2024-09-17T14:10:25Z</time>
      </trkpt>
      <trkpt lat="44.54515" lon="1.04159">
        <ele>173</ele>
        <time>2024-09-17T14:10:37Z</time>
      </trkpt>
      <trkpt lat="44.54526" lon="1.04137">
        <ele>175</ele>
        <time>2024-09-17T14:11:03Z</time>
      </trkpt>
      <trkpt lat="44.54535" lon="1.0413">
        <ele>176</ele>
        <time>2024-09-17T14:11:16Z</time>
      </trkpt>
      <trkpt lat="44.54544" lon="1.04124">
        <ele>177</ele>
        <time>2024-09-17T14:11:30Z</time>
      </trkpt>
      <trkpt lat="44.54563" lon="1.04119">
        <ele>177</ele>
        <time>2024-09-17T14:11:55Z</time>
      </trkpt>
      <trkpt lat="44.54582" lon="1.04118">
        <ele>178</ele>
        <time>2024-09-17T14:12:21Z</time>
      </trkpt>
      <trkpt lat="44.54597" lon="1.04114">
        <ele>179</ele>
        <time>2024-09-17T14:12:41Z</time>
      </trkpt>
      <trkpt lat="44.54614" lon="1.04099">
        <ele>180</ele>
        <time>2024-09-17T14:13:08Z</time>
      </trkpt>
      <trkpt lat="44.5462" lon="1.04089">
        <ele>181</ele>
        <time>2024-09-17T14:13:20Z</time>
      </trkpt>
      <trkpt lat="44.5463" lon="1.04082">
        <ele>181</ele>
        <time>2024-09-17T14:13:35Z</time>
      </trkpt>
      <trkpt lat="44.54643" lon="1.04064">
        <ele>183</ele>
        <time>2024-09-17T14:14:00Z</time>
      </trkpt>
      <trkpt lat="44.54658" lon="1.04047">
        <ele>184</ele>
        <time>2024-09-17T14:14:25Z</time>
      </trkpt>
      <trkpt lat="44.54667" lon="1.0404">
        <ele>184</ele>
        <time>2024-09-17T14:14:39Z</time>
      </trkpt>
      <trkpt lat="44.54681" lon="1.04021">
        <ele>186</ele>
        <time>2024-09-17T14:15:05Z</time>
      </trkpt>
      <trkpt lat="44.54693" lon="1.03999">
        <ele>188</ele>
        <time>2024-09-17T14:15:31Z</time>
      </trkpt>
      <trkpt lat="44.54709" lon="1.03948">
        <ele>193</ele>
        <time>2024-09-17T14:16:24Z</time>
      </trkpt>
      <trkpt lat="44.54724" lon="1.03916">
        <ele>194</ele>
        <time>2024-09-17T14:17:01Z</time>
      </trkpt>
      <trkpt lat="44.54738" lon="1.03898">
        <ele>195</ele>
        <time>2024-09-17T14:17:26Z</time>
      </trkpt>
      <trkpt lat="44.5474" lon="1.03885">
        <ele>195</ele>
        <time>2024-09-17T14:17:39Z</time>
      </trkpt>
      <trkpt lat="44.54742" lon="1.03859">
        <ele>195</ele>
        <time>2024-09-17T14:18:04Z</time>
      </trkpt>
      <trkpt lat="44.54749" lon="1.03834">
        <ele>194</ele>
        <time>2024-09-17T14:18:29Z</time>
      </trkpt>
      <trkpt lat="44.54754" lon="1.03808">
        <ele>196</ele>
        <time>2024-09-17T14:18:55Z</time>
      </trkpt>
      <trkpt lat="44.54754" lon="1.03766">
        <ele>197</ele>
        <time>2024-09-17T14:19:35Z</time>
      </trkpt>
      <trkpt lat="44.54753" lon="1.0374">
        <ele>198</ele>
        <time>2024-09-17T14:20:00Z</time>
      </trkpt>
      <trkpt lat="44.54749" lon="1.03726">
        <ele>198</ele>
        <time>2024-09-17T14:20:14Z</time>
      </trkpt>
      <trkpt lat="44.54743" lon="1.03715">
        <ele>198</ele>
        <time>2024-09-17T14:20:27Z</time>
      </trkpt>
      <trkpt lat="44.54731" lon="1.0365">
        <ele>201</ele>
        <time>2024-09-17T14:21:31Z</time>
      </trkpt>
      <trkpt lat="44.54733" lon="1.03623">
        <ele>201</ele>
        <time>2024-09-17T14:21:57Z</time>
      </trkpt>
      <trkpt lat="44.54729" lon="1.03583">
        <ele>203</ele>
        <time>2024-09-17T14:22:35Z</time>
      </trkpt>
      <trkpt lat="44.54732" lon="1.0357">
        <ele>203</ele>
        <time>2024-09-17T14:22:48Z</time>
      </trkpt>
      <trkpt lat="44.5474" lon="1.03544">
        <ele>203</ele>
        <time>2024-09-17T14:23:15Z</time>
      </trkpt>
      <trkpt lat="44.54746" lon="1.03534">
        <ele>202</ele>
        <time>2024-09-17T14:23:28Z</time>
      </trkpt>
      <trkpt lat="44.5477" lon="1.0351">
        <ele>203</ele>
        <time>2024-09-17T14:24:07Z</time>
      </trkpt>
      <trkpt lat="44.54778" lon="1.03504">
        <ele>203</ele>
        <time>2024-09-17T14:24:19Z</time>
      </trkpt>
      <trkpt lat="44.54785" lon="1.03494">
        <ele>203</ele>
        <time>2024-09-17T14:24:32Z</time>
      </trkpt>
      <trkpt lat="44.54802" lon="1.03479">
        <ele>204</ele>
        <time>2024-09-17T14:24:59Z</time>
      </trkpt>
      <trkpt lat="44.54811" lon="1.03474">
        <ele>204</ele>
        <time>2024-09-17T14:25:12Z</time>
      </trkpt>
      <trkpt lat="44.54849" lon="1.0346">
        <ele>204</ele>
        <time>2024-09-17T14:26:04Z</time>
      </trkpt>
      <trkpt lat="44.54868" lon="1.03455">
        <ele>205</ele>
        <time>2024-09-17T14:26:30Z</time>
      </trkpt>
      <trkpt lat="44.54878" lon="1.03456">
        <ele>205</ele>
        <time>2024-09-17T14:26:44Z</time>
      </trkpt>
      <trkpt lat="44.54887" lon="1.03452">
        <ele>206</ele>
        <time>2024-09-17T14:26:56Z</time>
      </trkpt>
      <trkpt lat="44.54897" lon="1.0345">
        <ele>206</ele>
        <time>2024-09-17T14:27:10Z</time>
      </trkpt>
      <trkpt lat="44.54917" lon="1.0345">
        <ele>207</ele>
        <time>2024-09-17T14:27:36Z</time>
      </trkpt>
      <trkpt lat="44.54935" lon="1.03443">
        <ele>207</ele>
        <time>2024-09-17T14:28:01Z</time>
      </trkpt>
      <trkpt lat="44.5498" lon="1.03417">
        <ele>205</ele>
        <time>2024-09-17T14:29:06Z</time>
      </trkpt>
      <trkpt lat="44.54991" lon="1.03416">
        <ele>204</ele>
        <time>2024-09-17T14:29:21Z</time>
      </trkpt>
      <trkpt lat="44.55" lon="1.03413">
        <ele>204</ele>
        <time>2024-09-17T14:29:33Z</time>
      </trkpt>
      <trkpt lat="44.55048" lon="1.03414">
        <ele>204</ele>
        <time>2024-09-17T14:30:37Z</time>
      </trkpt>
      <trkpt lat="44.55077" lon="1.03409">
        <ele>204</ele>
        <time>2024-09-17T14:31:16Z</time>
      </trkpt>
      <trkpt lat="44.55085" lon="1.03404">
        <ele>204</ele>
        <time>2024-09-17T14:31:28Z</time>
      </trkpt>
      <trkpt lat="44.55093" lon="1.03396">
        <ele>205</ele>
        <time>2024-09-17T14:31:41Z</time>
      </trkpt>
      <trkpt lat="44.55103" lon="1.03392">
        <ele>205</ele>
        <time>2024-09-17T14:31:55Z</time>
      </trkpt>
      <trkpt lat="44.55121" lon="1.03381">
        <ele>206</ele>
        <time>2024-09-17T14:32:21Z</time>
      </trkpt>
      <trkpt lat="44.55171" lon="1.0334">
        <ele>208</ele>
        <time>2024-09-17T14:33:39Z</time>
      </trkpt>
      <trkpt lat="44.55166" lon="1.03329">
        <ele>208</ele>
        <time>2024-09-17T14:33:51Z</time>
      </trkpt>
      <trkpt lat="44.55149" lon="1.03342">
        <ele>207</ele>
        <time>2024-09-17T14:34:17Z</time>
      </trkpt>
      <trkpt lat="44.55141" lon="1.0335">
        <ele>207</ele>
        <time>2024-09-17T14:34:30Z</time>
      </trkpt>
      <trkpt lat="44.55113" lon="1.03362">
        <ele>206</ele>
        <time>2024-09-17T14:35:09Z</time>
      </trkpt>
      <trkpt lat="44.55103" lon="1.03362">
        <ele>205</ele>
        <time>2024-09-17T14:35:22Z</time>
      </trkpt>
      <trkpt lat="44.55085" lon="1.03366">
        <ele>205</ele>
        <time>2024-09-17T14:35:47Z</time>
      </trkpt>
      <trkpt lat="44.55055" lon="1.03359">
        <ele>205</ele>
        <time>2024-09-17T14:36:27Z</time>
      </trkpt>
      <trkpt lat="44.55047" lon="1.03355">
        <ele>205</ele>
        <time>2024-09-17T14:36:39Z</time>
      </trkpt>
      <trkpt lat="44.54987" lon="1.03364">
        <ele>206</ele>
        <time>2024-09-17T14:37:59Z</time>
      </trkpt>
      <trkpt lat="44.5497" lon="1.03379">
        <ele>206</ele>
        <time>2024-09-17T14:38:26Z</time>
      </trkpt>
      <trkpt lat="44.54953" lon="1.03386">
        <ele>207</ele>
        <time>2024-09-17T14:38:50Z</time>
      </trkpt>
      <trkpt lat="44.54935" lon="1.03399">
        <ele>207</ele>
        <time>2024-09-17T14:39:17Z</time>
      </trkpt>
      <trkpt lat="44.54925" lon="1.03402">
        <ele>207</ele>
        <time>2024-09-17T14:39:30Z</time>
      </trkpt>
      <trkpt lat="44.54907" lon="1.03401">
        <ele>207</ele>
        <time>2024-09-17T14:39:54Z</time>
      </trkpt>
      <trkpt lat="44.54887" lon="1.03397">
        <ele>207</ele>
        <time>2024-09-17T14:40:21Z</time>
      </trkpt>
      <trkpt lat="44.54879" lon="1.03404">
        <ele>207</ele>
        <time>2024-09-17T14:40:34Z</time>
      </trkpt>
      <trkpt lat="44.54859" lon="1.03406">
        <ele>206</ele>
        <time>2024-09-17T14:41:01Z</time>
      </trkpt>
      <trkpt lat="44.54849" lon="1.03403">
        <ele>206</ele>
        <time>2024-09-17T14:41:14Z</time>
      </trkpt>
      <trkpt lat="44.54831" lon="1.034">
        <ele>206</ele>
        <time>2024-09-17T14:41:38Z</time>
      </trkpt>
      <trkpt lat="44.54823" lon="1.03397">
        <ele>206</ele>
        <time>2024-09-17T14:41:49Z</time>
      </trkpt>
      <trkpt lat="44.54813" lon="1.03397">
        <ele>207</ele>
        <time>2024-09-17T14:42:03Z</time>
      </trkpt>
      <trkpt lat="44.54803" lon="1.03401">
        <ele>208</ele>
        <time>2024-09-17T14:42:17Z</time>
      </trkpt>
      <trkpt lat="44.54765" lon="1.03396">
        <ele>210</ele>
        <time>2024-09-17T14:43:08Z</time>
      </trkpt>
      <trkpt lat="44.54756" lon="1.03392">
        <ele>211</ele>
        <time>2024-09-17T14:43:20Z</time>
      </trkpt>
      <trkpt lat="44.54747" lon="1.03391">
        <ele>212</ele>
        <time>2024-09-17T14:43:32Z</time>
      </trkpt>
      <trkpt lat="44.5473" lon="1.03405">
        <ele>213</ele>
        <time>2024-09-17T14:43:59Z</time>
      </trkpt>
      <trkpt lat="44.54721" lon="1.03405">
        <ele>214</ele>
        <time>2024-09-17T14:44:11Z</time>
      </trkpt>
      <trkpt lat="44.5471" lon="1.03402">
        <ele>215</ele>
        <time>2024-09-17T14:44:25Z</time>
      </trkpt>
      <trkpt lat="44.54691" lon="1.03405">
        <ele>216</ele>
        <time>2024-09-17T14:44:51Z</time>
      </trkpt>
      <trkpt lat="44.54672" lon="1.03402">
        <ele>217</ele>
        <time>2024-09-17T14:45:16Z</time>
      </trkpt>
      <trkpt lat="44.54654" lon="1.03405">
        <ele>217</ele>
        <time>2024-09-17T14:45:41Z</time>
      </trkpt>
      <trkpt lat="44.54645" lon="1.03409">
        <ele>217</ele>
        <time>2024-09-17T14:45:53Z</time>
      </trkpt>
      <trkpt lat="44.54635" lon="1.03407">
        <ele>217</ele>
        <time>2024-09-17T14:46:07Z</time>
      </trkpt>
      <trkpt lat="44.54626" lon="1.034">
        <ele>216</ele>
        <time>2024-09-17T14:46:20Z</time>
      </trkpt>
      <trkpt lat="44.54616" lon="1.03397">
        <ele>216</ele>
        <time>2024-09-17T14:46:34Z</time>
      </trkpt>
      <trkpt lat="44.546" lon="1.03384">
        <ele>216</ele>
        <time>2024-09-17T14:46:59Z</time>
      </trkpt>
      <trkpt lat="44.54576" lon="1.0336">
        <ele>217</ele>
        <time>2024-09-17T14:47:38Z</time>
      </trkpt>
      <trkpt lat="44.54555" lon="1.03331">
        <ele>220</ele>
        <time>2024-09-17T14:48:17Z</time>
      </trkpt>
      <trkpt lat="44.5454" lon="1.03318">
        <ele>220</ele>
        <time>2024-09-17T14:48:41Z</time>
      </trkpt>
      <trkpt lat="44.54524" lon="1.03302">
        <ele>221</ele>
        <time>2024-09-17T14:49:07Z</time>
      </trkpt>
      <trkpt lat="44.54507" lon="1.03289">
        <ele>222</ele>
        <time>2024-09-17T14:49:33Z</time>
      </trkpt>
      <trkpt lat="44.545" lon="1.0328">
        <ele>223</ele>
        <time>2024-09-17T14:49:46Z</time>
      </trkpt>
      <trkpt lat="44.54469" lon="1.0325">
        <ele>226</ele>
        <time>2024-09-17T14:50:36Z</time>
      </trkpt>
      <trkpt lat="44.54434" lon="1.03233">
        <ele>229</ele>
        <time>2024-09-17T14:51:25Z</time>
      </trkpt>
      <trkpt lat="44.54427" lon="1.03223">
        <ele>230</ele>
        <time>2024-09-17T14:51:39Z</time>
      </trkpt>
      <trkpt lat="44.54422" lon="1.03211">
        <ele>230</ele>
        <time>2024-09-17T14:51:52Z</time>
      </trkpt>
      <trkpt lat="44.54413" lon="1.03207">
        <ele>231</ele>
        <time>2024-09-17T14:52:05Z</time>
      </trkpt>
      <trkpt lat="44.54394" lon="1.03201">
        <ele>234</ele>
        <time>2024-09-17T14:52:31Z</time>
      </trkpt>
      <trkpt lat="44.54376" lon="1.03191">
        <ele>236</ele>
        <time>2024-09-17T14:52:56Z</time>
      </trkpt>
      <trkpt lat="44.54368" lon="1.03183">
        <ele>237</ele>
        <time>2024-09-17T14:53:09Z</time>
      </trkpt>
      <trkpt lat="44.54342" lon="1.03167">
        <ele>240</ele>
        <time>2024-09-17T14:53:47Z</time>
      </trkpt>
      <trkpt lat="44.54333" lon="1.03164">
        <ele>241</ele>
        <time>2024-09-17T14:54:00Z</time>
      </trkpt>
      <trkpt lat="44.54317" lon="1.0315">
        <ele>240</ele>
        <time>2024-09-17T14:54:25Z</time>
      </trkpt>
      <trkpt lat="44.54299" lon="1.03137">
        <ele>239</ele>
        <time>2024-09-17T14:54:52Z</time>
      </trkpt>
      <trkpt lat="44.54287" lon="1.03118">
        <ele>238</ele>
        <time>2024-09-17T14:55:16Z</time>
      </trkpt>
      <trkpt lat="44.54285" lon="1.03104">
        <ele>237</ele>
        <time>2024-09-17T14:55:30Z</time>
      </trkpt>
      <trkpt lat="44.54269" lon="1.0307">
        <ele>236</ele>
        <time>2024-09-17T14:56:08Z</time>
      </trkpt>
      <trkpt lat="44.54263" lon="1.03043">
        <ele>235</ele>
        <time>2024-09-17T14:56:35Z</time>
      </trkpt>
      <trkpt lat="44.54257" lon="1.03004">
        <ele>233</ele>
        <time>2024-09-17T14:57:13Z</time>
      </trkpt>
      <trkpt lat="44.54242" lon="1.02956">
        <ele>232</ele>
        <time>2024-09-17T14:58:03Z</time>
      </trkpt>
      <trkpt lat="44.54231" lon="1.02934">
        <ele>231</ele>
        <time>2024-09-17T14:58:29Z</time>
      </trkpt>
      <trkpt lat="44.54219" lon="1.02898">
        <ele>230</ele>
        <time>2024-09-17T14:59:06Z</time>
      </trkpt>
      <trkpt lat="44.54196" lon="1.0284">
        <ele>230</ele>
        <time>2024-09-17T15:00:10Z</time>
      </trkpt>
      <trkpt lat="44.54166" lon="1.02788">
        <ele>226</ele>
        <time>2024-09-17T15:01:13Z</time>
      </trkpt>
      <trkpt lat="44.54147" lon="1.02741">
        <ele>225</ele>
        <time>2024-09-17T15:02:05Z</time>
      </trkpt>
      <trkpt lat="44.54127" lon="1.0271">
        <ele>226</ele>
        <time>2024-09-17T15:02:44Z</time>
      </trkpt>
      <trkpt lat="44.54098" lon="1.02657">
        <ele>229</ele>
        <time>2024-09-17T15:03:48Z</time>
      </trkpt>
      <trkpt lat="44.54078" lon="1.02627">
        <ele>231</ele>
        <time>2024-09-17T15:04:27Z</time>
      </trkpt>
      <trkpt lat="44.54064" lon="1.02611">
        <ele>231</ele>
        <time>2024-09-17T15:04:51Z</time>
      </trkpt>
      <trkpt lat="44.54048" lon="1.02596">
        <ele>232</ele>
        <time>2024-09-17T15:05:17Z</time>
      </trkpt>
      <trkpt lat="44.54029" lon="1.02567">
        <ele>233</ele>
        <time>2024-09-17T15:05:54Z</time>
      </trkpt>
      <trkpt lat="44.5402" lon="1.02561">
        <ele>233</ele>
        <time>2024-09-17T15:06:08Z</time>
      </trkpt>
      <trkpt lat="44.53991" lon="1.02528">
        <ele>233</ele>
        <time>2024-09-17T15:06:57Z</time>
      </trkpt>
      <trkpt lat="44.53948" lon="1.02497">
        <ele>230</ele>
        <time>2024-09-17T15:08:02Z</time>
      </trkpt>
      <trkpt lat="44.5393" lon="1.02482">
        <ele>229</ele>
        <time>2024-09-17T15:08:30Z</time>
      </trkpt>
      <trkpt lat="44.53921" lon="1.02478">
        <ele>229</ele>
        <time>2024-09-17T15:08:42Z</time>
      </trkpt>
      <trkpt lat="44.53904" lon="1.02459">
        <ele>228</ele>
        <time>2024-09-17T15:09:11Z</time>
      </trkpt>
      <trkpt lat="44.53868" lon="1.02435">
        <ele>226</ele>
        <time>2024-09-17T15:10:05Z</time>
      </trkpt>
      <trkpt lat="44.53862" lon="1.02426">
        <ele>226</ele>
        <time>2024-09-17T15:10:16Z</time>
      </trkpt>
      <trkpt lat="44.53813" lon="1.0238">
        <ele>226</ele>
        <time>2024-09-17T15:11:35Z</time>
      </trkpt>
      <trkpt lat="44.53799" lon="1.02363">
        <ele>227</ele>
        <time>2024-09-17T15:12:00Z</time>
      </trkpt>
      <trkpt lat="44.53791" lon="1.02356">
        <ele>227</ele>
        <time>2024-09-17T15:12:12Z</time>
      </trkpt>
      <trkpt lat="44.53782" lon="1.02352">
        <ele>227</ele>
        <time>2024-09-17T15:12:25Z</time>
      </trkpt>
      <trkpt lat="44.53755" lon="1.02334">
        <ele>227</ele>
        <time>2024-09-17T15:13:05Z</time>
      </trkpt>
      <trkpt lat="44.53746" lon="1.02328">
        <ele>227</ele>
        <time>2024-09-17T15:13:18Z</time>
      </trkpt>
      <trkpt lat="44.53739" lon="1.02319">
        <ele>228</ele>
        <time>2024-09-17T15:13:31Z</time>
      </trkpt>
      <trkpt lat="44.53705" lon="1.02297">
        <ele>231</ele>
        <time>2024-09-17T15:14:21Z</time>
      </trkpt>
      <trkpt lat="44.53688" lon="1.02283">
        <ele>233</ele>
        <time>2024-09-17T15:14:47Z</time>
      </trkpt>
      <trkpt lat="44.53679" lon="1.02282">
        <ele>233</ele>
        <time>2024-09-17T15:14:59Z</time>
      </trkpt>
      <trkpt lat="44.53661" lon="1.02273">
        <ele>234</ele>
        <time>2024-09-17T15:15:25Z</time>
      </trkpt>
      <trkpt lat="44.53626" lon="1.02252">
        <ele>234</ele>
        <time>2024-09-17T15:16:15Z</time>
      </trkpt>
      <trkpt lat="44.536" lon="1.02225">
        <ele>233</ele>
        <time>2024-09-17T15:16:59Z</time>
      </trkpt>
      <trkpt lat="44.53573" lon="1.02225">
        <ele>232</ele>
        <time>2024-09-17T15:17:35Z</time>
      </trkpt>
      <trkpt lat="44.53559" lon="1.02208">
        <ele>231</ele>
        <time>2024-09-17T15:17:59Z</time>
      </trkpt>
      <trkpt lat="44.53534" lon="1.0219">
        <ele>230</ele>
        <time>2024-09-17T15:18:37Z</time>
      </trkpt>
      <trkpt lat="44.53525" lon="1.02186">
        <ele>229</ele>
        <time>2024-09-17T15:18:49Z</time>
      </trkpt>
      <trkpt lat="44.53501" lon="1.02177">
        <ele>228</ele>
        <time>2024-09-17T15:19:22Z</time>
      </trkpt>
      <trkpt lat="44.5349" lon="1.02162">
        <ele>227</ele>
        <time>2024-09-17T15:19:43Z</time>
      </trkpt>
      <trkpt lat="44.53478" lon="1.0214">
        <ele>224</ele>
        <time>2024-09-17T15:20:09Z</time>
      </trkpt>
      <trkpt lat="44.53465" lon="1.02122">
        <ele>223</ele>
        <time>2024-09-17T15:20:34Z</time>
      </trkpt>
      <trkpt lat="44.53458" lon="1.02107">
        <ele>221</ele>
        <time>2024-09-17T15:20:51Z</time>
      </trkpt>
      <trkpt lat="44.53452" lon="1.02089">
        <ele>220</ele>
        <time>2024-09-17T15:21:10Z</time>
      </trkpt>
      <trkpt lat="44.53445" lon="1.02072">
        <ele>219</ele>
        <time>2024-09-17T15:21:28Z</time>
      </trkpt>
      <trkpt lat="44.53439" lon="1.02047">
        <ele>218</ele>
        <time>2024-09-17T15:21:53Z</time>
      </trkpt>
      <trkpt lat="44.53433" lon="1.02028">
        <ele>217</ele>
        <time>2024-09-17T15:22:13Z</time>
      </trkpt>
      <trkpt lat="44.53423" lon="1.02009">
        <ele>217</ele>
        <time>2024-09-17T15:22:36Z</time>
      </trkpt>
      <trkpt lat="44.53414" lon="1.01991">
        <ele>216</ele>
        <time>2024-09-17T15:22:57Z</time>
      </trkpt>
      <trkpt lat="44.53398" lon="1.01973">
        <ele>214</ele>
        <time>2024-09-17T15:23:24Z</time>
      </trkpt>
      <trkpt lat="44.53386" lon="1.01958">
        <ele>214</ele>
        <time>2024-09-17T15:23:45Z</time>
      </trkpt>
      <trkpt lat="44.53373" lon="1.01942">
        <ele>213</ele>
        <time>2024-09-17T15:24:08Z</time>
      </trkpt>
      <trkpt lat="44.53373" lon="1.01966">
        <ele>214</ele>
        <time>2024-09-17T15:24:31Z</time>
      </trkpt>
      <trkpt lat="44.53371" lon="1.01995">
        <ele>215</ele>
        <time>2024-09-17T15:24:59Z</time>
      </trkpt>
      <trkpt lat="44.53369" lon="1.02022">
        <ele>215</ele>
        <time>2024-09-17T15:25:25Z</time>
      </trkpt>
      <trkpt lat="44.53365" lon="1.02049">
        <ele>215</ele>
        <time>2024-09-17T15:25:51Z</time>
      </trkpt>
      <trkpt lat="44.53365" lon="1.02073">
        <ele>215</ele>
        <time>2024-09-17T15:26:14Z</time>
      </trkpt>
      <trkpt lat="44.5336" lon="1.02093">
        <ele>215</ele>
        <time>2024-09-17T15:26:34Z</time>
      </trkpt>
      <trkpt lat="44.53355" lon="1.02119">
        <ele>214</ele>
        <time>2024-09-17T15:27:00Z</time>
      </trkpt>
      <trkpt lat="44.53355" lon="1.02145">
        <ele>214</ele>
        <time>2024-09-17T15:27:24Z</time>
      </trkpt>
      <trkpt lat="44.53348" lon="1.02169">
        <ele>214</ele>
        <time>2024-09-17T15:27:49Z</time>
      </trkpt>
      <trkpt lat="44.53341" lon="1.02192">
        <ele>213</ele>
        <time>2024-09-17T15:28:13Z</time>
      </trkpt>
      <trkpt lat="44.53334" lon="1.02219">
        <ele>213</ele>
        <time>2024-09-17T15:28:40Z</time>
      </trkpt>
      <trkpt lat="44.53323" lon="1.0224">
        <ele>211</ele>
        <time>2024-09-17T15:29:05Z</time>
      </trkpt>
      <trkpt lat="44.53313" lon="1.02263">
        <ele>209</ele>
        <time>2024-09-17T15:29:31Z</time>
      </trkpt>
      <trkpt lat="44.53305" lon="1.02279">
        <ele>207</ele>
        <time>2024-09-17T15:29:49Z</time>
      </trkpt>
      <trkpt lat="44.53299" lon="1.02296">
        <ele>206</ele>
        <time>2024-09-17T15:30:07Z</time>
      </trkpt>
      <trkpt lat="44.5329" lon="1.02307">
        <ele>203</ele>
        <time>2024-09-17T15:30:23Z</time>
      </trkpt>
      <trkpt lat="44.53286" lon="1.02332">
        <ele>202</ele>
        <time>2024-09-17T15:30:48Z</time>
      </trkpt>
      <trkpt lat="44.53288" lon="1.02348">
        <ele>202</ele>
        <time>2024-09-17T15:31:03Z</time>
      </trkpt>
      <trkpt lat="44.53291" lon="1.02364">
        <ele>202</ele>
        <time>2024-09-17T15:31:19Z</time>
      </trkpt>
      <trkpt lat="44.53297" lon="1.02379">
        <ele>204</ele>
        <time>2024-09-17T15:31:35Z</time>
      </trkpt>
      <trkpt lat="44.53299" lon="1.02399">
        <ele>204</ele>
        <time>2024-09-17T15:31:54Z</time>
      </trkpt>
      <trkpt lat="44.533" lon="1.02417">
        <ele>203</ele>
        <time>2024-09-17T15:32:11Z</time>
      </trkpt>
      <trkpt lat="44.53302" lon="1.02437">
        <ele>202</ele>
        <time>2024-09-17T15:32:31Z</time>
      </trkpt>
      <trkpt lat="44.53301" lon="1.02458">
        <ele>200</ele>
        <time>2024-09-17T15:32:51Z</time>
      </trkpt>
      <trkpt lat="44.53305" lon="1.02483">
        <ele>200</ele>
        <time>2024-09-17T15:33:15Z</time>
      </trkpt>
      <trkpt lat="44.53308" lon="1.02495">
        <ele>199</ele>
        <time>2024-09-17T15:33:27Z</time>
      </trkpt>
      <trkpt lat="44.53316" lon="1.02515">
        <ele>199</ele>
        <time>2024-09-17T15:33:49Z</time>
      </trkpt>
      <trkpt lat="44.5333" lon="1.02529">
        <ele>199</ele>
        <time>2024-09-17T15:34:12Z</time>
      </trkpt>
      <trkpt lat="44.53336" lon="1.02541">
        <ele>198</ele>
        <time>2024-09-17T15:34:26Z</time>
      </trkpt>
      <trkpt lat="44.53346" lon="1.02547">
        <ele>199</ele>
        <time>2024-09-17T15:34:40Z</time>
      </trkpt>
      <trkpt lat="44.53357" lon="1.02554">
        <ele>199</ele>
        <time>2024-09-17T15:34:57Z</time>
      </trkpt>
      <trkpt lat="44.53361" lon="1.02567">
        <ele>198</ele>
        <time>2024-09-17T15:35:10Z</time>
      </trkpt>
      <trkpt lat="44.53364" lon="1.02584">
        <ele>196</ele>
        <time>2024-09-17T15:35:27Z</time>
      </trkpt>
      <trkpt lat="44.53367" lon="1.02607">
        <ele>194</ele>
        <time>2024-09-17T15:35:49Z</time>
      </trkpt>
      <trkpt lat="44.53369" lon="1.02633">
        <ele>193</ele>
        <time>2024-09-17T15:36:14Z</time>
      </trkpt>
      <trkpt lat="44.53373" lon="1.02667">
        <ele>191</ele>
        <time>2024-09-17T15:36:47Z</time>
      </trkpt>
      <trkpt lat="44.53368" lon="1.02651">
        <ele>191</ele>
        <time>2024-09-17T15:37:03Z</time>
      </trkpt>
      <trkpt lat="44.5335" lon="1.02635">
        <ele>189</ele>
        <time>2024-09-17T15:37:32Z</time>
      </trkpt>
      <trkpt lat="44.53338" lon="1.02618">
        <ele>188</ele>
        <time>2024-09-17T15:37:54Z</time>
      </trkpt>
      <trkpt lat="44.53328" lon="1.02605">
        <ele>188</ele>
        <time>2024-09-17T15:38:13Z</time>
      </trkpt>
      <trkpt lat="44.53311" lon="1.02608">
        <ele>186</ele>
        <time>2024-09-17T15:38:35Z</time>
      </trkpt>
      <trkpt lat="44.53292" lon="1.02604">
        <ele>183</ele>
        <time>2024-09-17T15:39:01Z</time>
      </trkpt>
      <trkpt lat="44.53286" lon="1.02588">
        <ele>184</ele>
        <time>2024-09-17T15:39:18Z</time>
      </trkpt>
      <trkpt lat="44.53277" lon="1.02585">
        <ele>183</ele>
        <time>2024-09-17T15:39:31Z</time>
      </trkpt>
      <trkpt lat="44.53269" lon="1.02579">
        <ele>182</ele>
        <time>2024-09-17T15:39:43Z</time>
      </trkpt>
      <trkpt lat="44.5326" lon="1.02587">
        <ele>180</ele>
        <time>2024-09-17T15:39:57Z</time>
      </trkpt>
      <trkpt lat="44.53257" lon="1.02599">
        <ele>179</ele>
        <time>2024-09-17T15:40:09Z</time>
      </trkpt>
      <trkpt lat="44.53237" lon="1.02609">
        <ele>175</ele>
        <time>2024-09-17T15:40:37Z</time>
      </trkpt>
      <trkpt lat="44.53218" lon="1.02608">
        <ele>172</ele>
        <time>2024-09-17T15:41:03Z</time>
      </trkpt>
      <trkpt lat="44.53209" lon="1.0261">
        <ele>170</ele>
        <time>2024-09-17T15:41:15Z</time>
      </trkpt>
      <trkpt lat="44.532" lon="1.0261">
        <ele>169</ele>
        <time>2024-09-17T15:41:27Z</time>
      </trkpt>
      <trkpt lat="44.53171" lon="1.02618">
        <ele>163</ele>
        <time>2024-09-17T15:42:06Z</time>
      </trkpt>
      <trkpt lat="44.53152" lon="1.0262">
        <ele>160</ele>
        <time>2024-09-17T15:42:32Z</time>
      </trkpt>
      <trkpt lat="44.53134" lon="1.02627">
        <ele>157</ele>
        <time>2024-09-17T15:42:57Z</time>
      </trkpt>
      <trkpt lat="44.53116" lon="1.02628">
        <ele>155</ele>
        <time>2024-09-17T15:43:21Z</time>
      </trkpt>
      <trkpt lat="44.53088" lon="1.02624">
        <ele>151</ele>
        <time>2024-09-17T15:43:58Z</time>
      </trkpt>
      <trkpt lat="44.53079" lon="1.0262">
        <ele>150</ele>
        <time>2024-09-17T15:44:11Z</time>
      </trkpt>
      <trkpt lat="44.53062" lon="1.02608">
        <ele>148</ele>
        <time>2024-09-17T15:44:36Z</time>
      </trkpt>
      <trkpt lat="44.53054" lon="1.026">
        <ele>147</ele>
        <time>2024-09-17T15:44:49Z</time>
      </trkpt>
      <trkpt lat="44.53048" lon="1.0259">
        <ele>147</ele>
        <time>2024-09-17T15:45:02Z</time>
      </trkpt>
      <trkpt lat="44.53041" lon="1.02563">
        <ele>148</ele>
        <time>2024-09-17T15:45:29Z</time>
      </trkpt>
      <trkpt lat="44.53035" lon="1.02552">
        <ele>149</ele>
        <time>2024-09-17T15:45:42Z</time>
      </trkpt>
      <trkpt lat="44.53025" lon="1.0255">
        <ele>148</ele>
        <time>2024-09-17T15:45:56Z</time>
      </trkpt>
      <trkpt lat="44.53006" lon="1.02555">
        <ele>145</ele>
        <time>2024-09-17T15:46:22Z</time>
      </trkpt>
      <trkpt lat="44.52997" lon="1.02553">
        <ele>144</ele>
        <time>2024-09-17T15:46:34Z</time>
      </trkpt>
      <trkpt lat="44.52988" lon="1.02547">
        <ele>144</ele>
        <time>2024-09-17T15:46:47Z</time>
      </trkpt>
      <trkpt lat="44.52978" lon="1.02545">
        <ele>143</ele>
        <time>2024-09-17T15:47:01Z</time>
      </trkpt>
      <trkpt lat="44.52969" lon="1.02545">
        <ele>142</ele>
        <time>2024-09-17T15:47:13Z</time>
      </trkpt>
      <trkpt lat="44.52959" lon="1.02541">
        <ele>141</ele>
        <time>2024-09-17T15:47:26Z</time>
      </trkpt>
      <trkpt lat="44.5295" lon="1.02537">
        <ele>140</ele>
        <time>2024-09-17T15:47:39Z</time>
      </trkpt>
      <trkpt lat="44.52931" lon="1.02539">
        <ele>138</ele>
        <time>2024-09-17T15:48:04Z</time>
      </trkpt>
      <trkpt lat="44.52877" lon="1.02534">
        <ele>133</ele>
        <time>2024-09-17T15:49:17Z</time>
      </trkpt>
      <trkpt lat="44.52868" lon="1.02534">
        <ele>132</ele>
        <time>2024-09-17T15:49:29Z</time>
      </trkpt>
      <trkpt lat="44.52857" lon="1.02536">
        <ele>131</ele>
        <time>2024-09-17T15:49:44Z</time>
      </trkpt>
      <trkpt lat="44.52828" lon="1.02535">
        <ele>129</ele>
        <time>2024-09-17T15:50:22Z</time>
      </trkpt>
      <trkpt lat="44.52819" lon="1.02537">
        <ele>128</ele>
        <time>2024-09-17T15:50:34Z</time>
      </trkpt>
      <trkpt lat="44.52792" lon="1.02533">
        <ele>127</ele>
        <time>2024-09-17T15:51:11Z</time>
      </trkpt>
      <trkpt lat="44.52752" lon="1.02535">
        <ele>124</ele>
        <time>2024-09-17T15:52:04Z</time>
      </trkpt>
      <trkpt lat="44.52733" lon="1.02534">
        <ele>124</ele>
        <time>2024-09-17T15:52:29Z</time>
      </trkpt>
      <trkpt lat="44.52704" lon="1.02537">
        <ele>122</ele>
        <time>2024-09-17T15:53:08Z</time>
      </trkpt>
      <trkpt lat="44.52695" lon="1.02536">
        <ele>122</ele>
        <time>2024-09-17T15:53:20Z</time>
      </trkpt>
      <trkpt lat="44.52686" lon="1.02537">
        <ele>122</ele>
        <time>2024-09-17T15:53:32Z</time>
      </trkpt>
      <trkpt lat="44.5266" lon="1.02555">
        <ele>120</ele>
        <time>2024-09-17T15:54:11Z</time>
      </trkpt>
      <trkpt lat="44.52643" lon="1.0257">
        <ele>119</ele>
        <time>2024-09-17T15:54:38Z</time>
      </trkpt>
      <trkpt lat="44.52598" lon="1.02603">
        <ele>117</ele>
        <time>2024-09-17T15:55:46Z</time>
      </trkpt>
      <trkpt lat="44.52574" lon="1.02625">
        <ele>117</ele>
        <time>2024-09-17T15:56:24Z</time>
      </trkpt>
      <trkpt lat="44.5253" lon="1.02656">
        <ele>117</ele>
        <time>2024-09-17T15:57:30Z</time>
      </trkpt>
      <trkpt lat="44.52507" lon="1.02683">
        <ele>115</ele>
        <time>2024-09-17T15:58:10Z</time>
      </trkpt>
      <trkpt lat="44.5248" lon="1.02724">
        <ele>112</ele>
        <time>2024-09-17T15:59:03Z</time>
      </trkpt>
      <trkpt lat="44.52472" lon="1.02734">
        <ele>111</ele>
        <time>2024-09-17T15:59:17Z</time>
      </trkpt>
      <trkpt lat="44.52462" lon="1.0274">
        <ele>111</ele>
        <time>2024-09-17T15:59:31Z</time>
      </trkpt>
      <trkpt lat="44.52424" lon="1.02752">
        <ele>110</ele>
        <time>2024-09-17T16:00:23Z</time>
      </trkpt>
      <trkpt lat="44.52395" lon="1.02768">
        <ele>111</ele>
        <time>2024-09-17T16:01:05Z</time>
      </trkpt>
      <trkpt lat="44.52377" lon="1.02781">
        <ele>112</ele>
        <time>2024-09-17T16:01:32Z</time>
      </trkpt>
      <trkpt lat="44.5235" lon="1.02792">
        <ele>112</ele>
        <time>2024-09-17T16:02:10Z</time>
      </trkpt>
      <trkpt lat="44.52321" lon="1.02799">
        <ele>110</ele>
        <time>2024-09-17T16:02:49Z</time>
      </trkpt>
      <trkpt lat="44.52312" lon="1.02798">
        <ele>110</ele>
        <time>2024-09-17T16:03:01Z</time>
      </trkpt>
      <trkpt lat="44.52283" lon="1.02802">
        <ele>107</ele>
        <time>2024-09-17T16:03:40Z</time>
      </trkpt>
      <trkpt lat="44.52264" lon="1.02807">
        <ele>105</ele>
        <time>2024-09-17T16:04:06Z</time>
      </trkpt>
      <trkpt lat="44.52246" lon="1.02821">
        <ele>103</ele>
        <time>2024-09-17T16:04:33Z</time>
      </trkpt>
      <trkpt lat="44.52209" lon="1.02864">
        <ele>100</ele>
        <time>2024-09-17T16:05:37Z</time>
      </trkpt>
      <trkpt lat="44.52174" lon="1.02889">
        <ele>96</ele>
        <time>2024-09-17T16:06:30Z</time>
      </trkpt>
      <trkpt lat="44.52165" lon="1.02894">
        <ele>95</ele>
        <time>2024-09-17T16:06:42Z</time>
      </trkpt>
      <trkpt lat="44.52169" lon="1.02919">
        <ele>96</ele>
        <time>2024-09-17T16:07:07Z</time>
      </trkpt>
      <trkpt lat="44.52171" lon="1.0296">
        <ele>98</ele>
        <time>2024-09-17T16:07:46Z</time>
      </trkpt>
      <trkpt lat="44.52176" lon="1.02986">
        <ele>101</ele>
        <time>2024-09-17T16:08:12Z</time>
      </trkpt>
      <trkpt lat="44.52177" lon="1.03013">
        <ele>102</ele>
        <time>2024-09-17T16:08:37Z</time>
      </trkpt>
      <trkpt lat="44.52181" lon="1.03026">
        <ele>103</ele>
        <time>2024-09-17T16:08:51Z</time>
      </trkpt>
      <trkpt lat="44.52183" lon="1.03069">
        <ele>104</ele>
        <time>2024-09-17T16:09:32Z</time>
      </trkpt>
      <trkpt lat="44.52187" lon="1.03097">
        <ele>105</ele>
        <time>2024-09-17T16:09:59Z</time>
      </trkpt>
      <trkpt lat="44.52188" lon="1.03124">
        <ele>105</ele>
        <time>2024-09-17T16:10:25Z</time>
      </trkpt>
      <trkpt lat="44.52186" lon="1.03137">
        <ele>105</ele>
        <time>2024-09-17T16:10:37Z</time>
      </trkpt>
      <trkpt lat="44.52166" lon="1.03132">
        <ele>101</ele>
        <time>2024-09-17T16:11:04Z</time>
      </trkpt>
      <trkpt lat="44.52148" lon="1.03125">
        <ele>99</ele>
        <time>2024-09-17T16:11:29Z</time>
      </trkpt>
      <trkpt lat="44.52109" lon="1.03114">
        <ele>96</ele>
        <time>2024-09-17T16:12:22Z</time>
      </trkpt>
      <trkpt lat="44.52089" lon="1.0311">
        <ele>94</ele>
        <time>2024-09-17T16:12:49Z</time>
      </trkpt>
      <trkpt lat="44.52021" lon="1.03109">
        <ele>94</ele>
        <time>2024-09-17T16:14:20Z</time>
      </trkpt>
      <trkpt lat="44.51993" lon="1.03106">
        <ele>95</ele>
        <time>2024-09-17T16:14:58Z</time>
      </trkpt>
      <trkpt lat="44.51984" lon="1.03105">
        <ele>95</ele>
        <time>2024-09-17T16:15:10Z</time>
      </trkpt>
      <trkpt lat="44.51975" lon="1.031">
        <ele>96</ele>
        <time>2024-09-17T16:15:23Z</time>
      </trkpt>
      <trkpt lat="44.51956" lon="1.03095">
        <ele>96</ele>
        <time>2024-09-17T16:15:48Z</time>
      </trkpt>
      <trkpt lat="44.51937" lon="1.03099">
        <ele>97</ele>
        <time>2024-09-17T16:16:14Z</time>
      </trkpt>
      <trkpt lat="44.51928" lon="1.03105">
        <ele>97</ele>
        <time>2024-09-17T16:16:27Z</time>
      </trkpt>
      <trkpt lat="44.51929" lon="1.03119">
        <ele>97</ele>
        <time>2024-09-17T16:16:41Z</time>
      </trkpt>
      <trkpt lat="44.51928" lon="1.03131">
        <ele>97</ele>
        <time>2024-09-17T16:16:52Z</time>
      </trkpt>
      <trkpt lat="44.51924" lon="1.03143">
        <ele>97</ele>
        <time>2024-09-17T16:17:05Z</time>
      </trkpt>
      <trkpt lat="44.51925" lon="1.03169">
        <ele>97</ele>
        <time>2024-09-17T16:17:30Z</time>
      </trkpt>
      <trkpt lat="44.51921" lon="1.03223">
        <ele>97</ele>
        <time>2024-09-17T16:18:21Z</time>
      </trkpt>
      <trkpt lat="44.51912" lon="1.0323">
        <ele>98</ele>
        <time>2024-09-17T16:18:35Z</time>
      </trkpt>
      <trkpt lat="44.51903" lon="1.03226">
        <ele>99</ele>
        <time>2024-09-17T16:18:48Z</time>
      </trkpt>
      <trkpt lat="44.51894" lon="1.03225">
        <ele>100</ele>
        <time>2024-09-17T16:19:00Z</time>
      </trkpt>
      <trkpt lat="44.51884" lon="1.03226">
        <ele>102</ele>
        <time>2024-09-17T16:19:13Z</time>
      </trkpt>
      <trkpt lat="44.51879" lon="1.03238">
        <ele>103</ele>
        <time>2024-09-17T16:19:26Z</time>
      </trkpt>
      <trkpt lat="44.51889" lon="1.03275">
        <ele>102</ele>
        <time>2024-09-17T16:20:04Z</time>
      </trkpt>
      <trkpt lat="44.51895" lon="1.03329">
        <ele>101</ele>
        <time>2024-09-17T16:20:56Z</time>
      </trkpt>
      <trkpt lat="44.51894" lon="1.03369">
        <ele>101</ele>
        <time>2024-09-17T16:21:34Z</time>
      </trkpt>
      <trkpt lat="44.51887" lon="1.03437">
        <ele>100</ele>
        <time>2024-09-17T16:22:39Z</time>
      </trkpt>
      <trkpt lat="44.51884" lon="1.0345">
        <ele>100</ele>
        <time>2024-09-17T16:22:52Z</time>
      </trkpt>
      <trkpt lat="44.51883" lon="1.03463">
        <ele>100</ele>
        <time>2024-09-17T16:23:05Z</time>
      </trkpt>
      <trkpt lat="44.51886" lon="1.03476">
        <ele>100</ele>
        <time>2024-09-17T16:23:18Z</time>
      </trkpt>
      <trkpt lat="44.51881" lon="1.035">
        <ele>101</ele>
        <time>2024-09-17T16:23:42Z</time>
      </trkpt>
      <trkpt lat="44.51881" lon="1.03526">
        <ele>101</ele>
        <time>2024-09-17T16:24:06Z</time>
      </trkpt>
      <trkpt lat="44.51881" lon="1.03552">
        <ele>102</ele>
        <time>2024-09-17T16:24:31Z</time>
      </trkpt>
      <trkpt lat="44.51884" lon="1.03578">
        <ele>102</ele>
        <time>2024-09-17T16:24:56Z</time>
      </trkpt>
      <trkpt lat="44.51889" lon="1.03603">
        <ele>102</ele>
        <time>2024-09-17T16:25:21Z</time>
      </trkpt>
      <trkpt lat="44.5189" lon="1.03616">
        <ele>102</ele>
        <time>2024-09-17T16:25:33Z</time>
      </trkpt>
      <trkpt lat="44.51901" lon="1.03652">
        <ele>101</ele>
        <time>2024-09-17T16:26:11Z</time>
      </trkpt>
      <trkpt lat="44.51909" lon="1.03704">
        <ele>101</ele>
        <time>2024-09-17T16:27:01Z</time>
      </trkpt>
      <trkpt lat="44.51925" lon="1.03778">
        <ele>103</ele>
        <time>2024-09-17T16:28:15Z</time>
      </trkpt>
      <trkpt lat="44.51943" lon="1.03827">
        <ele>106</ele>
        <time>2024-09-17T16:29:07Z</time>
      </trkpt>
      <trkpt lat="44.51948" lon="1.03838">
        <ele>106</ele>
        <time>2024-09-17T16:29:20Z</time>
      </trkpt>
      <trkpt lat="44.51955" lon="1.03847">
        <ele>106</ele>
        <time>2024-09-17T16:29:32Z</time>
      </trkpt>
      <trkpt lat="44.51964" lon="1.03872">
        <ele>107</ele>
        <time>2024-09-17T16:29:59Z</time>
      </trkpt>
      <trkpt lat="44.5198" lon="1.03906">
        <ele>107</ele>
        <time>2024-09-17T16:30:38Z</time>
      </trkpt>
      <trkpt lat="44.51999" lon="1.03938">
        <ele>105</ele>
        <time>2024-09-17T16:31:17Z</time>
      </trkpt>
      <trkpt lat="44.52007" lon="1.03964">
        <ele>106</ele>
        <time>2024-09-17T16:31:44Z</time>
      </trkpt>
      <trkpt lat="44.52007" lon="1.03969">
        <ele>106</ele>
        <time>2024-09-17T16:31:49Z</time>
      </trkpt>
      <trkpt lat="44.52025" lon="1.03973">
        <ele>105</ele>
        <time>2024-09-17T16:32:13Z</time>
      </trkpt>
      <trkpt lat="44.52034" lon="1.03978">
        <ele>104</ele>
        <time>2024-09-17T16:32:26Z</time>
      </trkpt>
      <trkpt lat="44.52044" lon="1.03981">
        <ele>103</ele>
        <time>2024-09-17T16:32:40Z</time>
      </trkpt>
      <trkpt lat="44.52097" lon="1.04008">
        <ele>101</ele>
        <time>2024-09-17T16:33:55Z</time>
      </trkpt>
      <trkpt lat="44.52124" lon="1.04018">
        <ele>101</ele>
        <time>2024-09-17T16:34:32Z</time>
      </trkpt>
      <trkpt lat="44.52145" lon="1.0403">
        <ele>101</ele>
        <time>2024-09-17T16:35:03Z</time>
      </trkpt>
      <trkpt lat="44.5221" lon="1.04059">
        <ele>100</ele>
        <time>2024-09-17T16:36:34Z</time>
      </trkpt>
      <trkpt lat="44.52219" lon="1.04057">
        <ele>100</ele>
        <time>2024-09-17T16:36:46Z</time>
      </trkpt>
      <trkpt lat="44.52267" lon="1.04068">
        <ele>99</ele>
        <time>2024-09-17T16:37:51Z</time>
      </trkpt>
      <trkpt lat="44.52301" lon="1.0409">
        <ele>99</ele>
        <time>2024-09-17T16:38:41Z</time>
      </trkpt>
      <trkpt lat="44.52328" lon="1.04103">
        <ele>100</ele>
        <time>2024-09-17T16:39:19Z</time>
      </trkpt>
      <trkpt lat="44.52336" lon="1.0411">
        <ele>100</ele>
        <time>2024-09-17T16:39:31Z</time>
      </trkpt>
      <trkpt lat="44.52354" lon="1.04119">
        <ele>100</ele>
        <time>2024-09-17T16:39:57Z</time>
      </trkpt>
      <trkpt lat="44.52382" lon="1.04126">
        <ele>100</ele>
        <time>2024-09-17T16:40:35Z</time>
      </trkpt>
      <trkpt lat="44.524" lon="1.04133">
        <ele>100</ele>
        <time>2024-09-17T16:41:00Z</time>
      </trkpt>
      <trkpt lat="44.52409" lon="1.04133">
        <ele>99</ele>
        <time>2024-09-17T16:41:12Z</time>
      </trkpt>
      <trkpt lat="44.52439" lon="1.04131">
        <ele>99</ele>
        <time>2024-09-17T16:41:52Z</time>
      </trkpt>
      <trkpt lat="44.52482" lon="1.0418">
        <ele>100</ele>
        <time>2024-09-17T16:43:06Z</time>
      </trkpt>
      <trkpt lat="44.52489" lon="1.04191">
        <ele>101</ele>
        <time>2024-09-17T16:43:20Z</time>
      </trkpt>
      <trkpt lat="44.52527" lon="1.04232">
        <ele>101</ele>
        <time>2024-09-17T16:44:24Z</time>
      </trkpt>
      <trkpt lat="44.52616" lon="1.04342">
        <ele>101</ele>
        <time>2024-09-17T16:47:02Z</time>
      </trkpt>
      <trkpt lat="44.52626" lon="1.04348">
        <ele>101</ele>
        <time>2024-09-17T16:47:17Z</time>
      </trkpt>
      <trkpt lat="44.52636" lon="1.04347">
        <ele>100</ele>
        <time>2024-09-17T16:47:30Z</time>
      </trkpt>
      <trkpt lat="44.52646" lon="1.0435">
        <ele>100</ele>
        <time>2024-09-17T16:47:44Z</time>
      </trkpt>
      <trkpt lat="44.52655" lon="1.0435">
        <ele>100</ele>
        <time>2024-09-17T16:47:56Z</time>
      </trkpt>
      <trkpt lat="44.52664" lon="1.04353">
        <ele>100</ele>
        <time>2024-09-17T16:48:08Z</time>
      </trkpt>
      <trkpt lat="44.52703" lon="1.04354">
        <ele>100</ele>
        <time>2024-09-17T16:49:00Z</time>
      </trkpt>
      <trkpt lat="44.52732" lon="1.04352">
        <ele>99</ele>
        <time>2024-09-17T16:49:39Z</time>
      </trkpt>
      <trkpt lat="44.5275" lon="1.04355">
        <ele>99</ele>
        <time>2024-09-17T16:50:03Z</time>
      </trkpt>
      <trkpt lat="44.52779" lon="1.04354">
        <ele>100</ele>
        <time>2024-09-17T16:50:42Z</time>
      </trkpt>
      <trkpt lat="44.52798" lon="1.04357">
        <ele>100</ele>
        <time>2024-09-17T16:51:07Z</time>
      </trkpt>
      <trkpt lat="44.52828" lon="1.04357">
        <ele>100</ele>
        <time>2024-09-17T16:51:47Z</time>
      </trkpt>
      <trkpt lat="44.52838" lon="1.04355">
        <ele>100</ele>
        <time>2024-09-17T16:52:01Z</time>
      </trkpt>
      <trkpt lat="44.52867" lon="1.04357">
        <ele>101</ele>
        <time>2024-09-17T16:52:39Z</time>
      </trkpt>
      <trkpt lat="44.52877" lon="1.04361">
        <ele>101</ele>
        <time>2024-09-17T16:52:53Z</time>
      </trkpt>
      <trkpt lat="44.52887" lon="1.04358">
        <ele>101</ele>
        <time>2024-09-17T16:53:07Z</time>
      </trkpt>
      <trkpt lat="44.5293" lon="1.0436">
        <ele>102</ele>
        <time>2024-09-17T16:54:04Z</time>
      </trkpt>
      <trkpt lat="44.5295" lon="1.0436">
        <ele>102</ele>
        <time>2024-09-17T16:54:31Z</time>
      </trkpt>
      <trkpt lat="44.52959" lon="1.04362">
        <ele>102</ele>
        <time>2024-09-17T16:54:43Z</time>
      </trkpt>
      <trkpt lat="44.52979" lon="1.04363">
        <ele>103</ele>
        <time>2024-09-17T16:55:10Z</time>
      </trkpt>
      <trkpt lat="44.52988" lon="1.04357">
        <ele>103</ele>
        <time>2024-09-17T16:55:23Z</time>
      </trkpt>
      <trkpt lat="44.52995" lon="1.04346">
        <ele>103</ele>
        <time>2024-09-17T16:55:37Z</time>
      </trkpt>
      <trkpt lat="44.53004" lon="1.04343">
        <ele>103</ele>
        <time>2024-09-17T16:55:50Z</time>
      </trkpt>
      <trkpt lat="44.53014" lon="1.04344">
        <ele>103</ele>
        <time>2024-09-17T16:56:03Z</time>
      </trkpt>
      <trkpt lat="44.53033" lon="1.04338">
        <ele>104</ele>
        <time>2024-09-17T16:56:29Z</time>
      </trkpt>
      <trkpt lat="44.53052" lon="1.04329">
        <ele>104</ele>
        <time>2024-09-17T16:56:56Z</time>
      </trkpt>
      <trkpt lat="44.53061" lon="1.04327">
        <ele>104</ele>
        <time>2024-09-17T16:57:08Z</time>
      </trkpt>
      <trkpt lat="44.53067" lon="1.04317">
        <ele>104</ele>
        <time>2024-09-17T16:57:20Z</time>
      </trkpt>
    </trkseg>
  </trk>
</gpx>